sensor_id;sensor_type;location;lat;lon;timestamp;P1;durP1;ratioP1;P2;durP2;ratioP2
69280;SDS011;56392;51.082;17.080;2023-07-02T00:05:31;14.67;;;7.00;;
69280;SDS011;56392;51.082;17.080;2023-07-02T00:10:54;12.90;;;7.15;;
69280;SDS011;56392;51.082;17.080;2023-07-02T00:16:19;13.52;;;6.82;;
69280;SDS011;56392;51.082;17.080;2023-07-02T00:21:42;12.77;;;6.83;;
69280;SDS011;56392;51.082;17.080;2023-07-02T00:27:05;14.82;;;6.45;;
69280;SDS011;56392;51.082;17.080;2023-07-02T00:32:29;13.82;;;6.60;;
69280;SDS011;56392;51.082;17.080;2023-07-02T00:37:52;11.60;;;5.60;;
69280;SDS011;56392;51.082;17.080;2023-07-02T00:43:16;13.35;;;5.78;;
69280;SDS011;56392;51.082;17.080;2023-07-02T00:48:40;10.60;;;4.35;;
69280;SDS011;56392;51.082;17.080;2023-07-02T00:54:04;9.70;;;4.43;;
69280;SDS011;56392;51.082;17.080;2023-07-02T00:59:27;7.97;;;3.60;;
69280;SDS011;56392;51.082;17.080;2023-07-02T01:04:52;8.68;;;3.40;;
69280;SDS011;56392;51.082;17.080;2023-07-02T01:10:19;8.18;;;3.00;;
69280;SDS011;56392;51.082;17.080;2023-07-02T01:15:42;11.90;;;2.77;;
69280;SDS011;56392;51.082;17.080;2023-07-02T01:21:08;6.72;;;2.50;;
69280;SDS011;56392;51.082;17.080;2023-07-02T01:26:32;9.43;;;2.80;;
69280;SDS011;56392;51.082;17.080;2023-07-02T01:31:56;7.00;;;2.43;;
69280;SDS011;56392;51.082;17.080;2023-07-02T01:37:20;5.88;;;2.03;;
69280;SDS011;56392;51.082;17.080;2023-07-02T01:42:43;7.28;;;2.28;;
69280;SDS011;56392;51.082;17.080;2023-07-02T01:48:06;6.77;;;2.27;;
69280;SDS011;56392;51.082;17.080;2023-07-02T01:53:31;9.50;;;2.20;;
69280;SDS011;56392;51.082;17.080;2023-07-02T01:58:54;6.97;;;2.20;;
69280;SDS011;56392;51.082;17.080;2023-07-02T02:04:17;6.97;;;2.10;;
69280;SDS011;56392;51.082;17.080;2023-07-02T02:09:42;6.43;;;1.60;;
69280;SDS011;56392;51.082;17.080;2023-07-02T02:15:06;6.40;;;1.75;;
69280;SDS011;56392;51.082;17.080;2023-07-02T02:20:29;4.80;;;1.52;;
69280;SDS011;56392;51.082;17.080;2023-07-02T02:25:53;6.13;;;1.80;;
69280;SDS011;56392;51.082;17.080;2023-07-02T02:31:17;5.70;;;1.50;;
69280;SDS011;56392;51.082;17.080;2023-07-02T02:36:40;5.32;;;1.20;;
69280;SDS011;56392;51.082;17.080;2023-07-02T02:42:04;3.63;;;1.10;;
69280;SDS011;56392;51.082;17.080;2023-07-02T02:47:27;4.07;;;1.27;;
69280;SDS011;56392;51.082;17.080;2023-07-02T02:52:50;6.03;;;1.38;;
69280;SDS011;56392;51.082;17.080;2023-07-02T02:58:15;4.07;;;0.80;;
69280;SDS011;56392;51.082;17.080;2023-07-02T03:03:38;6.33;;;1.10;;
69280;SDS011;56392;51.082;17.080;2023-07-02T03:09:06;3.33;;;1.00;;
69280;SDS011;56392;51.082;17.080;2023-07-02T03:14:30;4.30;;;0.90;;
69280;SDS011;56392;51.082;17.080;2023-07-02T03:19:54;6.13;;;1.00;;
69280;SDS011;56392;51.082;17.080;2023-07-02T03:25:17;5.43;;;1.10;;
69280;SDS011;56392;51.082;17.080;2023-07-02T03:30:42;3.38;;;1.00;;
69280;SDS011;56392;51.082;17.080;2023-07-02T03:36:06;4.83;;;1.20;;
69280;SDS011;56392;51.082;17.080;2023-07-02T03:41:29;4.73;;;1.03;;
69280;SDS011;56392;51.082;17.080;2023-07-02T03:46:53;3.75;;;0.93;;
69280;SDS011;56392;51.082;17.080;2023-07-02T03:52:16;4.45;;;1.25;;
69280;SDS011;56392;51.082;17.080;2023-07-02T03:57:40;7.60;;;1.23;;
69280;SDS011;56392;51.082;17.080;2023-07-02T04:03:04;5.53;;;1.30;;
69280;SDS011;56392;51.082;17.080;2023-07-02T04:08:27;4.22;;;1.10;;
69280;SDS011;56392;51.082;17.080;2023-07-02T04:13:50;4.47;;;1.40;;
69280;SDS011;56392;51.082;17.080;2023-07-02T04:19:15;6.15;;;1.30;;
69280;SDS011;56392;51.082;17.080;2023-07-02T04:24:38;4.40;;;1.20;;
69280;SDS011;56392;51.082;17.080;2023-07-02T04:30:01;6.00;;;1.37;;
69280;SDS011;56392;51.082;17.080;2023-07-02T04:35:28;4.80;;;1.30;;
69280;SDS011;56392;51.082;17.080;2023-07-02T04:40:51;5.10;;;1.40;;
69280;SDS011;56392;51.082;17.080;2023-07-02T04:46:14;6.13;;;1.48;;
69280;SDS011;56392;51.082;17.080;2023-07-02T04:51:39;4.63;;;1.20;;
69280;SDS011;56392;51.082;17.080;2023-07-02T04:57:02;5.00;;;1.40;;
69280;SDS011;56392;51.082;17.080;2023-07-02T05:02:26;6.65;;;1.80;;
69280;SDS011;56392;51.082;17.080;2023-07-02T05:07:50;5.43;;;1.47;;
69280;SDS011;56392;51.082;17.080;2023-07-02T05:13:13;4.97;;;1.50;;
69280;SDS011;56392;51.082;17.080;2023-07-02T05:18:36;5.35;;;1.63;;
69280;SDS011;56392;51.082;17.080;2023-07-02T05:24:01;6.27;;;1.50;;
69280;SDS011;56392;51.082;17.080;2023-07-02T05:29:24;5.53;;;1.60;;
69280;SDS011;56392;51.082;17.080;2023-07-02T05:34:47;4.68;;;1.70;;
69280;SDS011;56392;51.082;17.080;2023-07-02T05:40:12;6.32;;;1.95;;
69280;SDS011;56392;51.082;17.080;2023-07-02T05:45:35;5.43;;;1.60;;
69280;SDS011;56392;51.082;17.080;2023-07-02T05:50:58;6.53;;;1.80;;
69280;SDS011;56392;51.082;17.080;2023-07-02T05:56:23;4.50;;;1.60;;
69280;SDS011;56392;51.082;17.080;2023-07-02T06:01:46;5.27;;;1.80;;
69280;SDS011;56392;51.082;17.080;2023-07-02T06:07:09;5.15;;;1.70;;
69280;SDS011;56392;51.082;17.080;2023-07-02T06:12:34;7.55;;;1.90;;
69280;SDS011;56392;51.082;17.080;2023-07-02T06:17:58;5.77;;;1.73;;
69280;SDS011;56392;51.082;17.080;2023-07-02T06:23:21;7.77;;;1.80;;
69280;SDS011;56392;51.082;17.080;2023-07-02T06:28:46;7.70;;;2.20;;
69280;SDS011;56392;51.082;17.080;2023-07-02T06:34:09;6.43;;;1.58;;
69280;SDS011;56392;51.082;17.080;2023-07-02T06:39:32;7.10;;;1.90;;
69280;SDS011;56392;51.082;17.080;2023-07-02T06:44:56;6.55;;;1.90;;
69280;SDS011;56392;51.082;17.080;2023-07-02T06:50:20;5.70;;;2.17;;
69280;SDS011;56392;51.082;17.080;2023-07-02T06:55:44;6.27;;;2.30;;
69280;SDS011;56392;51.082;17.080;2023-07-02T07:01:08;7.30;;;2.50;;
69280;SDS011;56392;51.082;17.080;2023-07-02T07:06:31;6.20;;;2.35;;
69280;SDS011;56392;51.082;17.080;2023-07-02T07:11:55;6.50;;;2.17;;
69280;SDS011;56392;51.082;17.080;2023-07-02T07:17:19;5.93;;;2.37;;
69280;SDS011;56392;51.082;17.080;2023-07-02T07:22:42;6.95;;;2.40;;
69280;SDS011;56392;51.082;17.080;2023-07-02T07:28:05;6.00;;;2.40;;
69280;SDS011;56392;51.082;17.080;2023-07-02T07:33:30;5.77;;;2.17;;
69280;SDS011;56392;51.082;17.080;2023-07-02T07:38:53;4.97;;;2.03;;
69280;SDS011;56392;51.082;17.080;2023-07-02T07:44:16;6.57;;;2.00;;
69280;SDS011;56392;51.082;17.080;2023-07-02T07:49:41;5.17;;;2.20;;
69280;SDS011;56392;51.082;17.080;2023-07-02T07:55:04;8.13;;;2.28;;
69280;SDS011;56392;51.082;17.080;2023-07-02T08:00:28;6.28;;;2.20;;
69280;SDS011;56392;51.082;17.080;2023-07-02T08:05:52;6.25;;;2.08;;
69280;SDS011;56392;51.082;17.080;2023-07-02T08:11:15;5.50;;;2.17;;
69280;SDS011;56392;51.082;17.080;2023-07-02T08:16:39;5.10;;;2.05;;
69280;SDS011;56392;51.082;17.080;2023-07-02T08:22:03;5.18;;;2.00;;
69280;SDS011;56392;51.082;17.080;2023-07-02T08:27:27;5.60;;;2.30;;
69280;SDS011;56392;51.082;17.080;2023-07-02T08:32:50;6.25;;;1.90;;
69280;SDS011;56392;51.082;17.080;2023-07-02T08:38:16;6.15;;;2.00;;
69280;SDS011;56392;51.082;17.080;2023-07-02T08:43:39;4.57;;;1.70;;
69280;SDS011;56392;51.082;17.080;2023-07-02T08:49:03;7.90;;;2.03;;
69280;SDS011;56392;51.082;17.080;2023-07-02T08:54:27;5.80;;;2.20;;
69280;SDS011;56392;51.082;17.080;2023-07-02T08:59:50;5.90;;;2.60;;
69280;SDS011;56392;51.082;17.080;2023-07-02T09:05:14;6.07;;;2.40;;
69280;SDS011;56392;51.082;17.080;2023-07-02T09:10:38;5.68;;;2.20;;
69280;SDS011;56392;51.082;17.080;2023-07-02T09:16:01;5.93;;;2.40;;
69280;SDS011;56392;51.082;17.080;2023-07-02T09:21:27;5.40;;;2.23;;
69280;SDS011;56392;51.082;17.080;2023-07-02T09:27:08;6.80;;;2.45;;
69280;SDS011;56392;51.082;17.080;2023-07-02T09:32:31;7.32;;;2.40;;
69280;SDS011;56392;51.082;17.080;2023-07-02T09:37:55;6.97;;;2.30;;
69280;SDS011;56392;51.082;17.080;2023-07-02T09:43:19;7.18;;;2.50;;
69280;SDS011;56392;51.082;17.080;2023-07-02T09:48:43;5.60;;;2.20;;
69280;SDS011;56392;51.082;17.080;2023-07-02T09:54:06;6.83;;;2.43;;
69280;SDS011;56392;51.082;17.080;2023-07-02T09:59:31;5.30;;;2.10;;
69280;SDS011;56392;51.082;17.080;2023-07-02T10:04:54;8.30;;;2.30;;
69280;SDS011;56392;51.082;17.080;2023-07-02T10:10:25;5.70;;;2.13;;
69280;SDS011;56392;51.082;17.080;2023-07-02T10:16:01;6.03;;;2.07;;
69280;SDS011;56392;51.082;17.080;2023-07-02T10:21:24;5.80;;;2.05;;
69280;SDS011;56392;51.082;17.080;2023-07-02T10:26:54;5.90;;;2.30;;
69280;SDS011;56392;51.082;17.080;2023-07-02T10:32:27;5.33;;;2.00;;
69280;SDS011;56392;51.082;17.080;2023-07-02T10:37:50;5.97;;;2.28;;
69280;SDS011;56392;51.082;17.080;2023-07-02T10:43:13;6.50;;;2.40;;
69280;SDS011;56392;51.082;17.080;2023-07-02T10:48:38;6.00;;;2.13;;
69280;SDS011;56392;51.082;17.080;2023-07-02T10:54:02;8.43;;;2.70;;
69280;SDS011;56392;51.082;17.080;2023-07-02T10:59:26;6.00;;;2.15;;
69280;SDS011;56392;51.082;17.080;2023-07-02T11:04:51;7.30;;;1.77;;
69280;SDS011;56392;51.082;17.080;2023-07-02T11:10:19;6.60;;;2.07;;
69280;SDS011;56392;51.082;17.080;2023-07-02T11:15:43;7.15;;;2.22;;
69280;SDS011;56392;51.082;17.080;2023-07-02T11:21:10;5.45;;;2.00;;
69280;SDS011;56392;51.082;17.080;2023-07-02T11:26:36;5.23;;;2.00;;
69280;SDS011;56392;51.082;17.080;2023-07-02T11:32:06;5.82;;;1.92;;
69280;SDS011;56392;51.082;17.080;2023-07-02T11:37:31;6.55;;;2.10;;
69280;SDS011;56392;51.082;17.080;2023-07-02T11:42:54;6.38;;;2.10;;
69280;SDS011;56392;51.082;17.080;2023-07-02T11:48:18;5.07;;;2.17;;
69280;SDS011;56392;51.082;17.080;2023-07-02T11:53:42;5.88;;;2.08;;
69280;SDS011;56392;51.082;17.080;2023-07-02T11:59:05;5.07;;;2.00;;
69280;SDS011;56392;51.082;17.080;2023-07-02T12:04:28;7.10;;;1.93;;
69280;SDS011;56392;51.082;17.080;2023-07-02T12:09:53;5.70;;;2.20;;
69280;SDS011;56392;51.082;17.080;2023-07-02T12:15:16;5.40;;;1.95;;
69280;SDS011;56392;51.082;17.080;2023-07-02T12:20:39;5.80;;;2.00;;
69280;SDS011;56392;51.082;17.080;2023-07-02T12:26:04;5.85;;;2.13;;
69280;SDS011;56392;51.082;17.080;2023-07-02T12:31:27;6.70;;;2.58;;
69280;SDS011;56392;51.082;17.080;2023-07-02T12:36:51;6.93;;;2.33;;
69280;SDS011;56392;51.082;17.080;2023-07-02T12:42:15;5.50;;;2.10;;
69280;SDS011;56392;51.082;17.080;2023-07-02T12:47:38;6.88;;;2.30;;
69280;SDS011;56392;51.082;17.080;2023-07-02T12:53:02;8.07;;;2.20;;
69280;SDS011;56392;51.082;17.080;2023-07-02T12:58:27;7.00;;;3.10;;
69280;SDS011;56392;51.082;17.080;2023-07-02T13:03:50;5.10;;;2.10;;
69280;SDS011;56392;51.082;17.080;2023-07-02T13:09:13;5.53;;;2.10;;
69280;SDS011;56392;51.082;17.080;2023-07-02T13:14:39;6.30;;;2.50;;
69280;SDS011;56392;51.082;17.080;2023-07-02T13:20:04;7.28;;;2.55;;
69280;SDS011;56392;51.082;17.080;2023-07-02T13:25:28;7.30;;;2.00;;
69280;SDS011;56392;51.082;17.080;2023-07-02T13:30:53;5.90;;;2.00;;
69280;SDS011;56392;51.082;17.080;2023-07-02T13:36:18;5.87;;;1.80;;
69280;SDS011;56392;51.082;17.080;2023-07-02T13:41:41;7.95;;;2.08;;
69280;SDS011;56392;51.082;17.080;2023-07-02T13:47:07;5.35;;;1.90;;
69280;SDS011;56392;51.082;17.080;2023-07-02T13:52:30;5.90;;;2.00;;
69280;SDS011;56392;51.082;17.080;2023-07-02T13:57:53;5.20;;;2.05;;
69280;SDS011;56392;51.082;17.080;2023-07-02T14:03:19;5.38;;;1.90;;
69280;SDS011;56392;51.082;17.080;2023-07-02T14:08:43;6.40;;;2.17;;
69280;SDS011;56392;51.082;17.080;2023-07-02T14:14:06;6.63;;;2.10;;
69280;SDS011;56392;51.082;17.080;2023-07-02T14:19:31;6.40;;;1.90;;
69280;SDS011;56392;51.082;17.080;2023-07-02T14:24:54;8.40;;;2.20;;
69280;SDS011;56392;51.082;17.080;2023-07-02T14:30:18;5.80;;;2.10;;
69280;SDS011;56392;51.082;17.080;2023-07-02T14:35:42;6.20;;;2.15;;
69280;SDS011;56392;51.082;17.080;2023-07-02T14:41:05;7.07;;;2.25;;
69280;SDS011;56392;51.082;17.080;2023-07-02T14:46:29;5.97;;;1.93;;
69280;SDS011;56392;51.082;17.080;2023-07-02T14:51:53;6.47;;;2.08;;
69280;SDS011;56392;51.082;17.080;2023-07-02T14:57:17;5.65;;;1.98;;
69280;SDS011;56392;51.082;17.080;2023-07-02T15:02:40;6.50;;;2.23;;
69280;SDS011;56392;51.082;17.080;2023-07-02T15:08:05;5.32;;;1.92;;
69280;SDS011;56392;51.082;17.080;2023-07-02T15:13:28;5.35;;;2.03;;
69280;SDS011;56392;51.082;17.080;2023-07-02T15:18:51;6.13;;;2.00;;
69280;SDS011;56392;51.082;17.080;2023-07-02T15:24:16;6.13;;;1.90;;
69280;SDS011;56392;51.082;17.080;2023-07-02T15:29:39;6.70;;;1.90;;
69280;SDS011;56392;51.082;17.080;2023-07-02T15:35:03;5.18;;;2.10;;
69280;SDS011;56392;51.082;17.080;2023-07-02T15:40:28;5.83;;;2.10;;
69280;SDS011;56392;51.082;17.080;2023-07-02T15:45:51;5.95;;;2.20;;
69280;SDS011;56392;51.082;17.080;2023-07-02T15:51:14;7.20;;;2.80;;
69280;SDS011;56392;51.082;17.080;2023-07-02T15:56:39;5.90;;;2.10;;
69280;SDS011;56392;51.082;17.080;2023-07-02T16:02:02;7.55;;;2.58;;
69280;SDS011;56392;51.082;17.080;2023-07-02T16:07:26;5.78;;;2.17;;
69280;SDS011;56392;51.082;17.080;2023-07-02T16:12:52;6.73;;;2.60;;
69280;SDS011;56392;51.082;17.080;2023-07-02T16:18:15;6.23;;;2.10;;
69280;SDS011;56392;51.082;17.080;2023-07-02T16:23:38;5.95;;;2.30;;
69280;SDS011;56392;51.082;17.080;2023-07-02T16:29:03;6.30;;;2.30;;
69280;SDS011;56392;51.082;17.080;2023-07-02T16:34:26;6.60;;;2.30;;
69280;SDS011;56392;51.082;17.080;2023-07-02T16:39:51;6.20;;;2.20;;
69280;SDS011;56392;51.082;17.080;2023-07-02T16:45:15;7.30;;;2.28;;
69280;SDS011;56392;51.082;17.080;2023-07-02T16:50:38;5.93;;;2.20;;
69280;SDS011;56392;51.082;17.080;2023-07-02T16:56:02;8.05;;;2.50;;
69280;SDS011;56392;51.082;17.080;2023-07-02T17:01:29;5.72;;;2.30;;
69280;SDS011;56392;51.082;17.080;2023-07-02T17:06:54;6.47;;;2.40;;
69280;SDS011;56392;51.082;17.080;2023-07-02T17:12:19;7.53;;;2.47;;
69280;SDS011;56392;51.082;17.080;2023-07-02T17:17:44;5.40;;;2.10;;
69280;SDS011;56392;51.082;17.080;2023-07-02T17:23:08;5.05;;;2.00;;
69280;SDS011;56392;51.082;17.080;2023-07-02T17:28:31;5.00;;;1.90;;
69280;SDS011;56392;51.082;17.080;2023-07-02T17:33:56;6.50;;;2.10;;
69280;SDS011;56392;51.082;17.080;2023-07-02T17:39:19;7.85;;;2.65;;
69280;SDS011;56392;51.082;17.080;2023-07-02T17:44:43;7.30;;;2.53;;
69280;SDS011;56392;51.082;17.080;2023-07-02T17:50:09;8.13;;;2.28;;
69280;SDS011;56392;51.082;17.080;2023-07-02T17:55:32;7.88;;;2.60;;
69280;SDS011;56392;51.082;17.080;2023-07-02T18:00:56;5.63;;;2.40;;
69280;SDS011;56392;51.082;17.080;2023-07-02T18:06:21;6.47;;;2.40;;
69280;SDS011;56392;51.082;17.080;2023-07-02T18:11:45;6.85;;;2.70;;
69280;SDS011;56392;51.082;17.080;2023-07-02T18:17:09;5.95;;;2.50;;
69280;SDS011;56392;51.082;17.080;2023-07-02T18:22:33;5.87;;;2.60;;
69280;SDS011;56392;51.082;17.080;2023-07-02T18:28:03;8.38;;;2.70;;
69280;SDS011;56392;51.082;17.080;2023-07-02T18:33:28;6.53;;;3.00;;
69280;SDS011;56392;51.082;17.080;2023-07-02T18:38:53;8.73;;;2.70;;
69280;SDS011;56392;51.082;17.080;2023-07-02T18:44:16;7.85;;;3.00;;
69280;SDS011;56392;51.082;17.080;2023-07-02T18:49:40;7.28;;;3.15;;
69280;SDS011;56392;51.082;17.080;2023-07-02T18:55:06;7.40;;;2.90;;
69280;SDS011;56392;51.082;17.080;2023-07-02T19:00:30;9.80;;;3.37;;
69280;SDS011;56392;51.082;17.080;2023-07-02T19:05:54;6.72;;;3.03;;
69280;SDS011;56392;51.082;17.080;2023-07-02T19:11:20;7.50;;;3.17;;
69280;SDS011;56392;51.082;17.080;2023-07-02T19:16:43;6.93;;;3.33;;
69280;SDS011;56392;51.082;17.080;2023-07-02T19:22:06;6.72;;;3.05;;
69280;SDS011;56392;51.082;17.080;2023-07-02T19:27:32;8.23;;;3.38;;
69280;SDS011;56392;51.082;17.080;2023-07-02T19:32:55;8.30;;;3.80;;
69280;SDS011;56392;51.082;17.080;2023-07-02T19:38:18;7.18;;;3.40;;
69280;SDS011;56392;51.082;17.080;2023-07-02T19:43:43;10.55;;;4.00;;
69280;SDS011;56392;51.082;17.080;2023-07-02T19:49:06;7.40;;;3.50;;
69280;SDS011;56392;51.082;17.080;2023-07-02T19:54:31;8.53;;;3.70;;
69280;SDS011;56392;51.082;17.080;2023-07-02T19:59:56;8.68;;;3.58;;
69280;SDS011;56392;51.082;17.080;2023-07-02T20:05:22;11.90;;;4.18;;
69280;SDS011;56392;51.082;17.080;2023-07-02T20:10:44;11.37;;;6.00;;
69280;SDS011;56392;51.082;17.080;2023-07-02T20:16:10;9.05;;;4.70;;
69280;SDS011;56392;51.082;17.080;2023-07-02T20:21:33;9.35;;;4.10;;
69280;SDS011;56392;51.082;17.080;2023-07-02T20:26:57;8.40;;;4.13;;
69280;SDS011;56392;51.082;17.080;2023-07-02T20:32:22;8.75;;;3.92;;
69280;SDS011;56392;51.082;17.080;2023-07-02T20:37:46;11.57;;;4.10;;
69280;SDS011;56392;51.082;17.080;2023-07-02T20:43:14;8.80;;;3.87;;
69280;SDS011;56392;51.082;17.080;2023-07-02T20:48:41;9.63;;;4.00;;
69280;SDS011;56392;51.082;17.080;2023-07-02T20:54:05;14.88;;;6.78;;
69280;SDS011;56392;51.082;17.080;2023-07-02T20:59:29;9.60;;;5.30;;
69280;SDS011;56392;51.082;17.080;2023-07-02T21:04:58;9.40;;;4.33;;
69280;SDS011;56392;51.082;17.080;2023-07-02T21:10:21;9.30;;;4.20;;
69280;SDS011;56392;51.082;17.080;2023-07-02T21:15:52;8.40;;;4.00;;
69280;SDS011;56392;51.082;17.080;2023-07-02T21:21:18;8.00;;;4.17;;
69280;SDS011;56392;51.082;17.080;2023-07-02T21:26:41;10.13;;;4.30;;
69280;SDS011;56392;51.082;17.080;2023-07-02T21:32:05;9.38;;;4.10;;
69280;SDS011;56392;51.082;17.080;2023-07-02T21:37:30;9.17;;;4.47;;
69280;SDS011;56392;51.082;17.080;2023-07-02T21:42:53;11.13;;;4.97;;
69280;SDS011;56392;51.082;17.080;2023-07-02T21:48:16;10.88;;;4.38;;
69280;SDS011;56392;51.082;17.080;2023-07-02T21:53:41;10.27;;;4.63;;
69280;SDS011;56392;51.082;17.080;2023-07-02T21:59:04;8.80;;;4.77;;
69280;SDS011;56392;51.082;17.080;2023-07-02T22:04:27;12.23;;;6.20;;
69280;SDS011;56392;51.082;17.080;2023-07-02T22:09:51;11.40;;;6.13;;
69280;SDS011;56392;51.082;17.080;2023-07-02T22:15:15;10.40;;;5.43;;
69280;SDS011;56392;51.082;17.080;2023-07-02T22:20:38;13.73;;;5.88;;
69280;SDS011;56392;51.082;17.080;2023-07-02T22:26:04;10.55;;;5.45;;
69280;SDS011;56392;51.082;17.080;2023-07-02T22:31:27;12.27;;;5.40;;
69280;SDS011;56392;51.082;17.080;2023-07-02T22:36:52;9.50;;;5.13;;
69280;SDS011;56392;51.082;17.080;2023-07-02T22:42:18;11.38;;;5.18;;
69280;SDS011;56392;51.082;17.080;2023-07-02T22:47:41;11.88;;;5.25;;
69280;SDS011;56392;51.082;17.080;2023-07-02T22:53:05;12.70;;;5.00;;
69280;SDS011;56392;51.082;17.080;2023-07-02T22:58:29;13.98;;;5.35;;
69280;SDS011;56392;51.082;17.080;2023-07-02T23:03:52;11.45;;;4.90;;
69280;SDS011;56392;51.082;17.080;2023-07-02T23:09:17;9.47;;;5.10;;
69280;SDS011;56392;51.082;17.080;2023-07-02T23:14:42;11.70;;;5.13;;
69280;SDS011;56392;51.082;17.080;2023-07-02T23:20:05;13.70;;;5.90;;
69280;SDS011;56392;51.082;17.080;2023-07-02T23:25:29;12.07;;;5.23;;
69280;SDS011;56392;51.082;17.080;2023-07-02T23:30:53;11.27;;;4.90;;
69280;SDS011;56392;51.082;17.080;2023-07-02T23:36:17;11.90;;;5.30;;
69280;SDS011;56392;51.082;17.080;2023-07-02T23:41:42;12.07;;;5.10;;
69280;SDS011;56392;51.082;17.080;2023-07-02T23:47:07;12.03;;;5.40;;
69280;SDS011;56392;51.082;17.080;2023-07-02T23:52:30;9.93;;;5.18;;
69280;SDS011;56392;51.082;17.080;2023-07-02T23:57:58;12.10;;;5.40;;
